Time;durP1;ratioP1;P1;durP2;ratioP2;P2;SDS_P1;SDS_P2;PMS_P1;PMS_P2;Temp;Humidity;BMP_temperature;BMP_pressure;BME280_temperature;BME280_humidity;BME280_pressure;Samples;Min_cycle;Max_cycle;Signal;HPM_P1;HPM_P2
2023/07/15 00:02:09;;;;;;;0.60;0.60;;;10.00;99.90;;;;;;4994362;28;20270;-76
2023/07/15 00:04:36;;;;;;;0.60;0.60;;;9.90;99.90;;;;;;5012082;28;20677;-75
2023/07/15 00:07:19;;;;;;;2.05;0.93;;;9.90;99.90;;;;;;4993902;28;20226;-74
2023/07/15 00:09:48;;;;;;;0.70;0.70;;;9.90;99.90;;;;;;4999368;28;20716;-75
2023/07/15 00:12:17;;;;;;;0.70;0.70;;;9.80;99.90;;;;;;4996699;28;20400;-74
2023/07/15 00:14:50;;;;;;;0.50;0.50;;;9.80;99.90;;;;;;5012087;28;20248;-75
2023/07/15 00:17:17;;;;;;;0.60;0.60;;;9.80;99.90;;;;;;4993826;28;20195;-77
2023/07/15 00:19:55;;;;;;;0.55;0.55;;;9.70;99.90;;;;;;4993705;28;20497;-75
2023/07/15 00:22:21;;;;;;;0.60;0.60;;;9.70;99.90;;;;;;5010911;28;20270;-75
2023/07/15 00:24:47;;;;;;;0.50;0.50;;;9.60;99.90;;;;;;5009670;28;20221;-76
2023/07/15 00:27:16;;;;;;;0.60;0.60;;;9.60;99.90;;;;;;4993673;28;20500;-76
2023/07/15 00:29:53;;;;;;;0.50;0.50;;;9.60;99.90;;;;;;5011502;28;20666;-75
2023/07/15 00:32:32;;;;;;;0.60;0.60;;;9.50;99.90;;;;;;5012236;28;20729;-74
2023/07/15 00:35:01;;;;;;;0.60;0.60;;;9.50;99.90;;;;;;4995873;28;20206;-77
2023/07/15 00:37:29;;;;;;;0.50;0.50;;;9.50;99.90;;;;;;5003861;28;20217;-75
2023/07/15 00:40:03;;;;;;;0.50;0.50;;;9.50;99.90;;;;;;5013973;28;20248;-75
2023/07/15 00:42:59;;;;;;;0.60;0.60;;;9.40;99.90;;;;;;5013735;28;20198;-76
2023/07/15 00:45:26;;;;;;;0.73;0.73;;;9.40;99.90;;;;;;4983257;28;20216;-76
2023/07/15 00:48:17;;;;;;;0.60;0.60;;;9.40;99.90;;;;;;4970363;28;20680;-75
2023/07/15 00:51:26;;;;;;;0.90;0.90;;;9.30;99.90;;;;;;4970908;28;20246;-74
2023/07/15 00:54:30;;;;;;;0.60;0.60;;;9.30;99.90;;;;;;4971492;28;20573;-74
2023/07/15 00:57:37;;;;;;;0.60;0.60;;;9.30;99.90;;;;;;4933077;29;20320;-76
2023/07/15 01:00:46;;;;;;;0.60;0.60;;;9.20;99.90;;;;;;4933396;29;20249;-74
2023/07/15 01:03:49;;;;;;;0.50;0.50;;;9.20;99.90;;;;;;4987752;23;20235;-71
2023/07/15 01:06:53;;;;;;;0.50;0.50;;;9.20;99.90;;;;;;5011476;28;20222;-71
2023/07/15 01:09:56;;;;;;;0.60;0.60;;;9.20;99.90;;;;;;4993669;28;20591;-71
2023/07/15 01:12:59;;;;;;;0.77;0.77;;;9.20;99.90;;;;;;5011392;28;20209;-72
2023/07/15 01:16:02;;;;;;;0.60;0.60;;;9.10;99.90;;;;;;4997280;28;20210;-71
2023/07/15 01:19:05;;;;;;;0.60;0.60;;;9.10;99.90;;;;;;5014898;28;20595;-70
2023/07/15 01:22:08;;;;;;;0.65;0.65;;;9.10;99.90;;;;;;5014806;28;20570;-71
2023/07/15 01:25:11;;;;;;;0.60;0.60;;;9.10;99.90;;;;;;5014182;28;20214;-69
2023/07/15 01:28:15;;;;;;;1.67;1.58;;;9.10;99.90;;;;;;4996337;28;20584;-68
2023/07/15 01:31:19;;;;;;;1.23;1.13;;;9.10;99.90;;;;;;5014610;28;20186;-69
2023/07/15 01:34:22;;;;;;;0.50;0.50;;;9.00;99.90;;;;;;5014808;28;20284;-69
2023/07/15 01:37:26;;;;;;;0.50;0.50;;;9.00;99.90;;;;;;5018853;28;20535;-68
2023/07/15 01:40:29;;;;;;;0.57;0.57;;;9.00;99.90;;;;;;5032991;28;20673;-68
2023/07/15 01:43:32;;;;;;;0.50;0.50;;;9.00;99.90;;;;;;5034378;28;20280;-68
2023/07/15 01:46:39;;;;;;;0.70;0.70;;;8.90;99.90;;;;;;5034354;28;20252;-68
2023/07/15 01:49:42;;;;;;;0.50;0.50;;;8.90;99.90;;;;;;5034545;28;20708;-70
2023/07/15 01:52:46;;;;;;;0.60;0.60;;;8.90;99.90;;;;;;5020925;28;20268;-68
2023/07/15 01:55:49;;;;;;;0.60;0.60;;;8.90;99.90;;;;;;5014326;28;20195;-68
2023/07/15 01:58:52;;;;;;;0.60;0.60;;;8.80;99.90;;;;;;4996459;28;20248;-68
2023/07/15 02:01:57;;;;;;;0.68;0.68;;;8.80;99.90;;;;;;4994930;28;20226;-68
2023/07/15 02:05:00;;;;;;;0.70;0.70;;;8.90;99.90;;;;;;5013857;28;20222;-70
2023/07/15 02:08:03;;;;;;;0.50;0.50;;;8.80;99.90;;;;;;4996202;28;20202;-69
2023/07/15 02:11:06;;;;;;;0.60;0.60;;;8.80;99.90;;;;;;5014327;28;20260;-69
2023/07/15 02:14:10;;;;;;;0.60;0.60;;;8.80;99.90;;;;;;5014305;28;20657;-69
2023/07/15 02:17:13;;;;;;;0.57;0.57;;;8.80;99.90;;;;;;5013960;28;20261;-68
2023/07/15 02:20:24;;;;;;;0.68;0.68;;;8.90;99.90;;;;;;5013701;28;20222;-69
2023/07/15 02:23:27;;;;;;;0.65;0.65;;;8.90;99.90;;;;;;5014378;28;20257;-68
2023/07/15 02:26:31;;;;;;;0.75;0.75;;;8.90;99.90;;;;;;4996339;28;20203;-67
2023/07/15 02:29:34;;;;;;;0.80;0.80;;;8.90;99.90;;;;;;5014932;28;20199;-70
2023/07/15 02:32:45;;;;;;;0.70;0.70;;;9.00;99.90;;;;;;5014559;28;20214;-69
2023/07/15 02:35:54;;;;;;;0.50;0.50;;;9.00;99.90;;;;;;4997329;28;20207;-69
2023/07/15 02:38:58;;;;;;;0.52;0.52;;;9.10;99.90;;;;;;5012121;28;20611;-68
2023/07/15 02:42:02;;;;;;;0.60;0.60;;;9.10;99.90;;;;;;5033610;28;20229;-68
2023/07/15 02:45:06;;;;;;;0.60;0.60;;;9.20;99.90;;;;;;5032856;28;20311;-68
2023/07/15 02:48:09;;;;;;;0.60;0.60;;;9.20;99.90;;;;;;5026953;28;20238;-68
2023/07/15 02:50:35;;;;;;;0.73;0.73;;;9.30;99.90;;;;;;5012724;28;20683;-68
2023/07/15 02:53:03;;;;;;;0.60;0.60;;;9.40;99.90;;;;;;5013264;28;20198;-68
2023/07/15 02:55:38;;;;;;;0.63;0.63;;;9.40;99.90;;;;;;5014373;28;20195;-69
2023/07/15 02:58:04;;;;;;;0.50;0.50;;;9.50;99.90;;;;;;5013143;28;20186;-69
2023/07/15 03:00:34;;;;;;;0.80;0.80;;;9.60;99.90;;;;;;5012468;28;20278;-70
2023/07/15 03:02:59;;;;;;;0.60;0.60;;;9.60;99.90;;;;;;5011866;28;20349;-69
2023/07/15 03:05:25;;;;;;;0.50;0.50;;;9.70;99.90;;;;;;5013095;28;20187;-67
2023/07/15 03:07:51;;;;;;;0.60;0.60;;;9.90;99.90;;;;;;5012996;28;20207;-67
2023/07/15 03:10:18;;;;;;;0.57;0.57;;;9.90;99.90;;;;;;5013173;28;20195;-67
2023/07/15 03:12:44;;;;;;;0.50;0.50;;;10.10;99.90;;;;;;5012913;28;20205;-67
2023/07/15 03:15:10;;;;;;;0.60;0.60;;;10.10;99.90;;;;;;5012927;28;20195;-67
2023/07/15 03:17:36;;;;;;;0.40;0.40;;;10.20;99.90;;;;;;5012665;28;20756;-66
2023/07/15 03:20:23;;;;;;;4.68;1.15;;;10.20;99.90;;;;;;5012640;28;20665;-67
2023/07/15 03:22:50;;;;;;;0.50;0.50;;;10.30;99.90;;;;;;5011201;28;20717;-67
2023/07/15 03:25:16;;;;;;;0.50;0.50;;;10.30;99.90;;;;;;5012574;28;20668;-67
2023/07/15 03:27:43;;;;;;;0.80;0.80;;;10.40;99.90;;;;;;5012790;28;20578;-68
2023/07/15 03:30:09;;;;;;;0.68;0.68;;;10.40;99.90;;;;;;5012891;28;20191;-68
2023/07/15 03:32:40;;;;;;;0.57;0.57;;;10.40;99.90;;;;;;4994817;28;20199;-67
2023/07/15 03:35:10;;;;;;;1.05;0.88;;;10.40;99.90;;;;;;5012098;28;20179;-68
2023/07/15 03:37:37;;;;;;;0.50;0.50;;;10.50;99.90;;;;;;5022667;28;20223;-68
2023/07/15 03:40:07;;;;;;;0.60;0.60;;;10.50;99.90;;;;;;5032109;28;20601;-68
2023/07/15 03:42:33;;;;;;;0.57;0.57;;;10.50;99.90;;;;;;5031220;28;20193;-68
2023/07/15 03:44:58;;;;;;;0.70;0.70;;;10.60;99.90;;;;;;5015762;28;20211;-67
2023/07/15 03:47:24;;;;;;;0.50;0.50;;;10.60;99.90;;;;;;5011952;28;20657;-68
2023/07/15 03:49:50;;;;;;;0.60;0.60;;;10.70;99.90;;;;;;4994635;28;20252;-68
2023/07/15 03:52:16;;;;;;;1.95;0.80;;;10.80;99.90;;;;;;5012333;28;20268;-68
2023/07/15 03:54:43;;;;;;;0.50;0.50;;;10.80;99.90;;;;;;5012328;28;20198;-68
2023/07/15 03:57:18;;;;;;;0.60;0.60;;;10.90;99.90;;;;;;5012946;28;20211;-70
2023/07/15 03:59:54;;;;;;;0.50;0.50;;;11.00;99.90;;;;;;5012649;28;20225;-69
2023/07/15 04:02:20;;;;;;;0.50;0.50;;;11.10;99.90;;;;;;5011585;28;20234;-70
2023/07/15 04:04:46;;;;;;;0.50;0.50;;;11.20;99.90;;;;;;5011929;28;20301;-69
2023/07/15 04:07:12;;;;;;;0.50;0.50;;;11.30;99.90;;;;;;5011774;28;20187;-69
2023/07/15 04:09:38;;;;;;;0.82;0.82;;;11.40;99.90;;;;;;5011453;28;20195;-70
2023/07/15 04:12:05;;;;;;;0.50;0.50;;;11.60;99.90;;;;;;4994455;28;20203;-70
2023/07/15 04:14:31;;;;;;;0.57;0.57;;;11.70;99.90;;;;;;5011166;28;20726;-70
2023/07/15 04:16:57;;;;;;;1.17;1.08;;;11.90;99.90;;;;;;5012704;28;20269;-69
2023/07/15 04:19:22;;;;;;;0.50;0.50;;;12.10;99.90;;;;;;4994044;28;20317;-69
2023/07/15 04:21:48;;;;;;;0.70;0.70;;;12.30;99.90;;;;;;5011879;28;20203;-70
2023/07/15 04:24:14;;;;;;;0.60;0.60;;;12.40;99.90;;;;;;5011929;28;20209;-70
2023/07/15 04:26:40;;;;;;;0.50;0.50;;;12.50;99.90;;;;;;5011827;28;20209;-69
2023/07/15 04:29:06;;;;;;;0.52;0.52;;;12.70;99.90;;;;;;4993228;28;20674;-70
2023/07/15 04:31:32;;;;;;;0.40;0.40;;;12.80;99.90;;;;;;5011575;28;20198;-70
2023/07/15 04:33:58;;;;;;;0.40;0.40;;;13.00;99.90;;;;;;5011818;28;20647;-70
2023/07/15 04:37:03;;;;;;;;;;;;;;;;;;;;;
2023/07/15 04:39:18;;;;;;;0.45;0.45;;;13.10;99.90;;;;;;5024077;28;20206;-70
2023/07/15 04:41:44;;;;;;;0.40;0.40;;;13.20;99.90;;;;;;5012867;28;20201;-69
2023/07/15 04:44:10;;;;;;;0.40;0.40;;;13.20;99.90;;;;;;5012924;28;20206;-68
2023/07/15 04:46:36;;;;;;;0.50;0.50;;;13.20;99.90;;;;;;4993562;28;20693;-68
2023/07/15 04:49:02;;;;;;;0.50;0.50;;;13.30;99.90;;;;;;5015562;28;20186;-69
2023/07/15 04:51:37;;;;;;;0.50;0.50;;;13.40;99.90;;;;;;5016623;28;20253;-69
2023/07/15 04:54:03;;;;;;;0.40;0.40;;;13.50;99.90;;;;;;5018011;28;20202;-69
2023/07/15 04:56:29;;;;;;;0.40;0.40;;;13.60;99.90;;;;;;5017728;28;20607;-69
2023/07/15 04:58:59;;;;;;;0.50;0.50;;;13.80;99.90;;;;;;5017786;28;20595;-70
2023/07/15 05:01:26;;;;;;;0.40;0.40;;;13.80;99.90;;;;;;5031217;28;20555;-71
2023/07/15 05:03:52;;;;;;;0.50;0.50;;;13.90;99.90;;;;;;5014829;28;20221;-69
2023/07/15 05:06:21;;;;;;;0.40;0.40;;;14.00;99.90;;;;;;5017189;28;20195;-69
2023/07/15 05:08:47;;;;;;;0.47;0.47;;;14.10;99.90;;;;;;4999833;28;20733;-69
2023/07/15 05:11:15;;;;;;;0.60;0.60;;;14.20;99.90;;;;;;5016222;28;20276;-70
2023/07/15 05:13:57;;;;;;;0.40;0.40;;;14.20;99.90;;;;;;4999093;28;20199;-70
2023/07/15 05:16:23;;;;;;;0.40;0.40;;;14.30;99.90;;;;;;5000327;28;20202;-70
2023/07/15 05:18:49;;;;;;;0.30;0.30;;;14.40;99.90;;;;;;5016953;28;20201;-70
2023/07/15 05:21:15;;;;;;;1.55;1.17;;;14.50;99.90;;;;;;5014994;28;20261;-70
2023/07/15 05:23:41;;;;;;;0.55;0.55;;;14.70;99.90;;;;;;5014645;28;20207;-70
2023/07/15 05:26:07;;;;;;;0.63;0.63;;;14.70;99.90;;;;;;5014361;28;20736;-70
2023/07/15 05:28:33;;;;;;;0.60;0.60;;;14.70;99.90;;;;;;5014387;28;20257;-69
2023/07/15 05:30:59;;;;;;;0.60;0.60;;;14.70;99.90;;;;;;5015315;28;20556;-69
2023/07/15 05:33:26;;;;;;;0.40;0.40;;;14.80;99.90;;;;;;5015191;28;20191;-70
2023/07/15 05:35:53;;;;;;;0.32;0.32;;;14.80;99.90;;;;;;5014704;28;20260;-70
2023/07/15 05:38:25;;;;;;;0.35;0.35;;;14.90;99.90;;;;;;5032025;28;20582;-70
2023/07/15 05:40:55;;;;;;;0.68;0.68;;;15.00;99.90;;;;;;5035700;28;20190;-70
2023/07/15 05:43:21;;;;;;;0.65;0.65;;;15.20;99.90;;;;;;5033682;28;20594;-69
2023/07/15 05:45:47;;;;;;;1.00;0.98;;;15.40;99.90;;;;;;5035532;28;20187;-69
2023/07/15 05:48:17;;;;;;;0.30;0.30;;;15.50;99.90;;;;;;5035095;28;20186;-70
2023/07/15 05:50:43;;;;;;;0.73;0.73;;;15.70;99.90;;;;;;5014153;28;20187;-70
2023/07/15 05:53:10;;;;;;;0.32;0.32;;;15.90;99.90;;;;;;5014216;28;20213;-70
2023/07/15 05:55:52;;;;;;;2.92;1.20;;;15.90;99.90;;;;;;5014807;28;20593;-69
2023/07/15 05:58:17;;;;;;;0.40;0.40;;;15.90;99.90;;;;;;5014064;28;20191;-69
2023/07/15 06:00:43;;;;;;;0.95;0.95;;;16.00;99.90;;;;;;5013975;28;20210;-71
2023/07/15 06:03:09;;;;;;;0.85;0.60;;;16.10;99.90;;;;;;5013797;28;20222;-70
2023/07/15 06:05:35;;;;;;;0.30;0.30;;;16.10;99.90;;;;;;5015459;28;20210;-70
2023/07/15 06:08:01;;;;;;;0.80;0.77;;;16.10;99.90;;;;;;5015631;28;20526;-68
2023/07/15 06:10:26;;;;;;;0.30;0.30;;;15.90;99.90;;;;;;5013727;28;20439;-69
2023/07/15 06:12:52;;;;;;;0.38;0.38;;;16.00;99.90;;;;;;5013163;28;20183;-68
2023/07/15 06:15:18;;;;;;;0.30;0.30;;;16.10;99.90;;;;;;4996729;28;20206;-70
2023/07/15 06:17:44;;;;;;;0.40;0.40;;;16.20;99.90;;;;;;5015553;28;20191;-69
2023/07/15 06:20:10;;;;;;;1.70;1.05;;;16.30;99.90;;;;;;5013874;28;20195;-70
2023/07/15 06:22:35;;;;;;;0.55;0.55;;;16.40;99.90;;;;;;4996180;28;20729;-69
2023/07/15 06:25:01;;;;;;;0.30;0.30;;;16.50;99.90;;;;;;5013914;28;20360;-70
2023/07/15 06:27:27;;;;;;;0.50;0.50;;;16.50;99.90;;;;;;4997951;28;20195;-70
2023/07/15 06:29:53;;;;;;;0.40;0.40;;;16.50;99.90;;;;;;5013619;28;20202;-76
2023/07/15 06:32:18;;;;;;;1.23;0.63;;;16.50;99.90;;;;;;5013601;28;20195;-76
2023/07/15 06:34:44;;;;;;;0.65;0.65;;;16.50;99.90;;;;;;5013785;28;20191;-76
2023/07/15 06:37:10;;;;;;;0.40;0.40;;;16.60;99.90;;;;;;5004419;28;20198;-78
2023/07/15 06:39:35;;;;;;;0.77;0.77;;;16.70;99.90;;;;;;5037418;28;20221;-78
2023/07/15 06:42:01;;;;;;;0.50;0.50;;;16.80;99.90;;;;;;5035695;28;20281;-77
2023/07/15 06:44:29;;;;;;;0.30;0.30;;;16.90;99.90;;;;;;5035203;28;20226;-75
2023/07/15 06:46:55;;;;;;;3.17;0.68;;;16.90;99.90;;;;;;4979132;28;20547;-76
2023/07/15 06:49:21;;;;;;;3.17;0.73;;;17.00;99.90;;;;;;4994167;28;20626;-70
2023/07/15 06:51:46;;;;;;;0.30;0.30;;;17.20;99.90;;;;;;4994388;28;20195;-70
2023/07/15 06:54:12;;;;;;;1.20;0.73;;;17.40;99.90;;;;;;5012074;28;20195;-70
2023/07/15 06:56:38;;;;;;;0.40;0.40;;;17.40;99.90;;;;;;5008852;28;20500;-70
2023/07/15 06:59:04;;;;;;;0.80;0.50;;;17.50;99.90;;;;;;5013257;28;20206;-70
2023/07/15 07:01:29;;;;;;;0.93;0.85;;;17.60;99.90;;;;;;4995442;28;20218;-70
2023/07/15 07:03:55;;;;;;;1.10;0.63;;;17.70;99.90;;;;;;5012801;28;20258;-70
2023/07/15 07:06:21;;;;;;;0.40;0.40;;;17.80;99.90;;;;;;4995234;28;20658;-71
2023/07/15 07:08:47;;;;;;;0.75;0.75;;;18.00;99.90;;;;;;4995641;28;20194;-69
2023/07/15 07:11:13;;;;;;;0.40;0.40;;;18.20;99.90;;;;;;5012503;28;20282;-72
2023/07/15 07:13:39;;;;;;;0.40;0.40;;;18.50;99.90;;;;;;5012925;28;20278;-69
2023/07/15 07:16:05;;;;;;;1.08;1.00;;;18.50;99.90;;;;;;4995078;28;20670;-69
2023/07/15 07:18:30;;;;;;;0.20;0.20;;;18.70;99.90;;;;;;4995180;28;20240;-69
2023/07/15 07:20:57;;;;;;;0.30;0.30;;;18.60;99.90;;;;;;5012896;28;20191;-69
2023/07/15 07:23:24;;;;;;;0.30;0.30;;;18.60;99.90;;;;;;5012237;28;20567;-70
2023/07/15 07:25:50;;;;;;;1.75;0.40;;;18.40;99.90;;;;;;4995125;28;20705;-70
2023/07/15 07:28:16;;;;;;;0.30;0.30;;;18.40;99.90;;;;;;5012562;28;20194;-69
2023/07/15 07:30:42;;;;;;;0.20;0.20;;;18.50;99.90;;;;;;5011884;28;20229;-69
2023/07/15 07:33:08;;;;;;;0.38;0.38;;;18.50;99.90;;;;;;5012889;28;20225;-69
2023/07/15 07:35:33;;;;;;;0.43;0.43;;;18.50;99.90;;;;;;5012363;28;20199;-67
2023/07/15 07:37:59;;;;;;;1.67;1.08;;;18.60;99.90;;;;;;5026068;28;20281;-69
2023/07/15 07:40:26;;;;;;;0.35;0.35;;;18.60;99.90;;;;;;5030598;28;20198;-70
2023/07/15 07:42:52;;;;;;;0.30;0.30;;;18.70;99.90;;;;;;5015108;28;20249;-70
2023/07/15 07:45:18;;;;;;;0.30;0.30;;;18.70;99.90;;;;;;5012137;28;20214;-69
2023/07/15 07:47:44;;;;;;;0.40;0.40;;;18.60;99.90;;;;;;4994955;28;20305;-70
2023/07/15 07:50:10;;;;;;;0.73;0.68;;;18.70;99.90;;;;;;5012303;28;20230;-71
2023/07/15 07:52:36;;;;;;;0.50;0.40;;;18.60;99.90;;;;;;5011694;28;20209;-69
2023/07/15 07:55:03;;;;;;;0.20;0.20;;;18.50;99.90;;;;;;5012455;28;20282;-70
2023/07/15 07:57:29;;;;;;;0.30;0.30;;;18.40;99.90;;;;;;4994661;28;20238;-69
2023/07/15 07:59:55;;;;;;;0.30;0.30;;;18.40;99.90;;;;;;5012389;28;20199;-69
2023/07/15 08:02:20;;;;;;;0.40;0.40;;;18.40;99.90;;;;;;5011983;28;20658;-69
2023/07/15 08:04:48;;;;;;;0.40;0.40;;;18.40;99.90;;;;;;5012130;28;20218;-70
2023/07/15 08:07:14;;;;;;;0.73;0.40;;;18.50;99.90;;;;;;5011912;28;20225;-70
2023/07/15 08:09:40;;;;;;;0.57;0.57;;;18.30;99.90;;;;;;5011722;28;20281;-69
2023/07/15 08:12:08;;;;;;;0.32;0.32;;;18.30;99.90;;;;;;5011312;28;20666;-69
2023/07/15 08:14:34;;;;;;;0.75;0.68;;;18.50;99.90;;;;;;5011595;28;20198;-69
2023/07/15 08:17:00;;;;;;;0.30;0.30;;;18.70;99.90;;;;;;4994166;28;20246;-70
2023/07/15 08:19:26;;;;;;;0.60;0.60;;;18.60;99.90;;;;;;5011431;28;20273;-71
2023/07/15 08:21:51;;;;;;;0.20;0.20;;;18.80;99.90;;;;;;5010928;28;20219;-70
2023/07/15 08:24:17;;;;;;;0.20;0.20;;;19.00;99.90;;;;;;5010875;28;20221;-70
2023/07/15 08:26:43;;;;;;;0.30;0.30;;;19.10;99.90;;;;;;5011738;28;20194;-69
2023/07/15 08:29:09;;;;;;;0.20;0.20;;;19.10;99.90;;;;;;5011783;28;20708;-69
2023/07/15 08:31:34;;;;;;;0.43;0.43;;;19.20;99.90;;;;;;5011725;28;20619;-69
2023/07/15 08:34:01;;;;;;;0.22;0.22;;;19.20;99.90;;;;;;5011840;28;20202;-70
2023/07/15 08:36:27;;;;;;;0.35;0.35;;;19.20;99.90;;;;;;5012548;28;20682;-70
2023/07/15 08:38:53;;;;;;;0.52;0.52;;;19.10;99.90;;;;;;5015628;28;20209;-70
2023/07/15 08:41:24;;;;;;;0.60;0.60;;;19.10;99.90;;;;;;5011195;28;20186;-70
2023/07/15 08:43:50;;;;;;;0.30;0.30;;;19.10;99.90;;;;;;4993675;28;20218;-70
2023/07/15 08:46:37;;;;;;;1.25;0.60;;;18.80;99.90;;;;;;5011648;28;20195;-70
2023/07/15 08:49:03;;;;;;;0.22;0.22;;;18.80;99.90;;;;;;5011426;28;20237;-70
2023/07/15 08:51:35;;;;;;;0.30;0.30;;;18.90;99.90;;;;;;4993754;28;20195;-71
2023/07/15 08:54:03;;;;;;;2.92;1.20;;;18.90;99.90;;;;;;5011465;28;20191;-71
2023/07/15 08:56:30;;;;;;;0.73;0.73;;;18.70;99.90;;;;;;5011145;28;20199;-70
2023/07/15 08:58:56;;;;;;;0.50;0.50;;;18.80;99.90;;;;;;5011451;28;20194;-71
2023/07/15 09:01:22;;;;;;;0.40;0.40;;;18.70;99.90;;;;;;5010335;28;20201;-71
2023/07/15 09:03:48;;;;;;;3.20;1.10;;;18.70;99.90;;;;;;5011018;28;20231;-71
2023/07/15 09:06:16;;;;;;;0.30;0.30;;;18.80;99.90;;;;;;5011262;28;20214;-71
2023/07/15 09:08:42;;;;;;;0.45;0.45;;;18.70;99.90;;;;;;5011035;28;20220;-71
2023/07/15 09:11:11;;;;;;;0.60;0.60;;;18.50;99.90;;;;;;5011416;28;20194;-71
2023/07/15 09:13:37;;;;;;;0.30;0.30;;;18.40;99.90;;;;;;5010878;28;20314;-71
2023/07/15 09:16:03;;;;;;;1.55;0.80;;;18.50;99.90;;;;;;5009841;28;20290;-70
2023/07/15 09:18:29;;;;;;;0.38;0.38;;;18.50;99.90;;;;;;5010843;28;20205;-70
2023/07/15 09:21:14;;;;;;;0.68;0.55;;;18.60;99.90;;;;;;4993070;28;20191;-71
2023/07/15 09:23:44;;;;;;;0.65;0.50;;;18.70;99.90;;;;;;5010933;28;20207;-71
2023/07/15 09:26:10;;;;;;;0.30;0.30;;;18.80;99.90;;;;;;4993248;28;20195;-71
2023/07/15 09:28:37;;;;;;;0.30;0.30;;;18.90;99.90;;;;;;5010662;28;20585;-71
2023/07/15 09:31:04;;;;;;;0.40;0.40;;;19.00;99.90;;;;;;5010987;28;20191;-70
2023/07/15 09:33:42;;;;;;;0.35;0.35;;;19.10;99.90;;;;;;5011452;28;20222;-71
2023/07/15 09:36:08;;;;;;;0.40;0.40;;;19.40;99.90;;;;;;5014712;28;20282;-71
2023/07/15 09:38:37;;;;;;;0.50;0.50;;;19.40;99.90;;;;;;5033198;28;20697;-71
2023/07/15 09:41:05;;;;;;;0.20;0.20;;;19.20;99.90;;;;;;5028812;28;20209;-71
2023/07/15 09:43:51;;;;;;;0.38;0.38;;;19.10;99.90;;;;;;5014199;28;20206;-70
2023/07/15 09:46:18;;;;;;;0.20;0.20;;;19.00;99.90;;;;;;5019738;28;20249;-70
2023/07/15 09:48:45;;;;;;;1.45;0.60;;;19.00;99.90;;;;;;5014438;28;20233;-70
2023/07/15 09:51:13;;;;;;;0.38;0.38;;;19.00;99.90;;;;;;5014579;28;20187;-71
2023/07/15 09:53:47;;;;;;;0.93;0.47;;;18.80;99.90;;;;;;5014250;28;20594;-71
2023/07/15 09:56:16;;;;;;;0.38;0.38;;;18.90;99.90;;;;;;5012959;28;20198;-71
2023/07/15 09:58:48;;;;;;;0.30;0.30;;;18.90;99.90;;;;;;5012857;28;20199;-71
2023/07/15 10:01:32;;;;;;;0.43;0.43;;;19.10;99.90;;;;;;4997158;28;20654;-71
2023/07/15 10:04:21;;;;;;;0.70;0.47;;;19.00;99.90;;;;;;5013982;28;20226;-71
2023/07/15 10:06:47;;;;;;;0.40;0.40;;;19.00;99.90;;;;;;5014231;28;20278;-71
2023/07/15 10:09:14;;;;;;;0.20;0.20;;;18.90;99.90;;;;;;4996592;28;20289;-71
2023/07/15 10:11:40;;;;;;;0.65;0.65;;;18.90;99.90;;;;;;5014026;28;20199;-71
2023/07/15 10:14:06;;;;;;;0.63;0.63;;;18.90;99.90;;;;;;5013688;28;20633;-71
2023/07/15 10:16:36;;;;;;;0.30;0.30;;;18.70;99.90;;;;;;5013912;28;20230;-72
2023/07/15 10:19:02;;;;;;;0.30;0.30;;;18.50;99.90;;;;;;5013523;28;20198;-71
2023/07/15 10:21:28;;;;;;;0.63;0.63;;;18.50;99.90;;;;;;5014072;28;20206;-71
2023/07/15 10:24:11;;;;;;;0.43;0.43;;;18.60;99.90;;;;;;5013895;28;20206;-70
2023/07/15 10:26:48;;;;;;;0.40;0.40;;;18.60;99.90;;;;;;5013806;28;20732;-70
2023/07/15 10:29:14;;;;;;;0.30;0.30;;;18.60;99.90;;;;;;5013818;28;20281;-70
2023/07/15 10:31:40;;;;;;;0.57;0.50;;;18.70;99.90;;;;;;5013662;28;20270;-71
2023/07/15 10:34:06;;;;;;;0.50;0.50;;;18.70;99.90;;;;;;5013784;28;20201;-71
2023/07/15 10:36:42;;;;;;;0.30;0.30;;;18.80;99.90;;;;;;4997292;28;20302;-71
2023/07/15 10:39:11;;;;;;;0.40;0.40;;;18.70;99.90;;;;;;4994053;28;20613;-71
2023/07/15 10:41:41;;;;;;;0.30;0.30;;;18.50;99.90;;;;;;4999290;28;20568;-70
2023/07/15 10:44:24;;;;;;;0.50;0.50;;;18.20;99.90;;;;;;5013427;28;20273;-71
2023/07/15 10:47:03;;;;;;;0.52;0.52;;;18.10;99.90;;;;;;4995106;28;20202;-71
2023/07/15 10:49:30;;;;;;;0.40;0.40;;;18.10;99.90;;;;;;5013014;28;20224;-72
2023/07/15 10:51:57;;;;;;;0.15;0.15;;;18.10;99.90;;;;;;5013360;28;20736;-71
2023/07/15 10:54:25;;;;;;;0.35;0.28;;;18.20;99.90;;;;;;5013116;28;20194;-71
2023/07/15 10:56:52;;;;;;;0.35;0.35;;;18.10;99.90;;;;;;4995935;28;20202;-71
2023/07/15 10:59:17;;;;;;;0.30;0.30;;;18.20;99.90;;;;;;5013660;28;20187;-71
2023/07/15 11:01:44;;;;;;;0.30;0.30;;;18.30;99.90;;;;;;5012953;28;20720;-71
2023/07/15 11:04:09;;;;;;;0.90;0.47;;;18.40;99.90;;;;;;5012966;28;20223;-71
2023/07/15 11:06:35;;;;;;;0.50;0.40;;;18.40;99.90;;;;;;5013064;28;20195;-70
2023/07/15 11:09:14;;;;;;;0.30;0.30;;;18.10;99.90;;;;;;5013210;28;20206;-70
2023/07/15 11:11:40;;;;;;;0.32;0.32;;;18.10;99.90;;;;;;5013163;28;20186;-71
2023/07/15 11:14:17;;;;;;;0.30;0.30;;;18.10;99.90;;;;;;5012662;28;20198;-71
2023/07/15 11:16:43;;;;;;;0.90;0.47;;;18.10;99.90;;;;;;5012491;28;20194;-71
2023/07/15 11:19:14;;;;;;;0.30;0.30;;;18.10;99.90;;;;;;5012371;28;20563;-72
2023/07/15 11:21:39;;;;;;;0.30;0.30;;;18.20;99.90;;;;;;5012307;28;20225;-70
2023/07/15 11:24:05;;;;;;;0.20;0.20;;;18.30;99.90;;;;;;5011943;28;20206;-69
2023/07/15 11:26:31;;;;;;;0.30;0.30;;;18.30;99.90;;;;;;5012017;28;20278;-69
2023/07/15 11:28:56;;;;;;;0.93;0.80;;;18.30;99.90;;;;;;5013122;28;20214;-69
2023/07/15 11:31:22;;;;;;;0.75;0.43;;;18.20;99.90;;;;;;5010868;28;20198;-70
2023/07/15 11:33:57;;;;;;;0.47;0.47;;;18.10;99.90;;;;;;5012229;28;20690;-68
2023/07/15 11:36:22;;;;;;;0.68;0.68;;;18.00;99.90;;;;;;5012763;28;20198;-69
2023/07/15 11:38:48;;;;;;;0.30;0.30;;;17.90;99.90;;;;;;5000431;28;20207;-68
2023/07/15 11:41:14;;;;;;;0.75;0.55;;;17.70;99.90;;;;;;5013655;28;20227;-70
2023/07/15 11:43:40;;;;;;;0.50;0.43;;;17.70;99.90;;;;;;5012535;28;20210;-69
2023/07/15 11:46:05;;;;;;;0.43;0.43;;;17.80;99.90;;;;;;4996152;28;20744;-70
2023/07/15 11:48:33;;;;;;;0.20;0.20;;;17.90;99.90;;;;;;5012665;28;20564;-71
2023/07/15 11:51:06;;;;;;;0.25;0.25;;;18.10;99.90;;;;;;5014219;28;20602;-71
2023/07/15 11:53:34;;;;;;;1.85;0.63;;;18.20;99.90;;;;;;5012204;28;20555;-70
2023/07/15 11:56:00;;;;;;;0.30;0.30;;;18.40;99.90;;;;;;5012057;28;20563;-71
2023/07/15 11:58:39;;;;;;;0.30;0.30;;;18.40;99.90;;;;;;4996005;28;20309;-70
2023/07/15 12:01:05;;;;;;;0.75;0.63;;;18.50;99.90;;;;;;5012211;28;20726;-69
2023/07/15 12:03:32;;;;;;;0.40;0.40;;;18.60;99.90;;;;;;5012248;28;20279;-76
2023/07/15 12:05:58;;;;;;;0.50;0.50;;;18.70;99.90;;;;;;4994325;28;20203;-77
2023/07/15 12:08:24;;;;;;;0.40;0.40;;;18.70;99.90;;;;;;5011710;28;20539;-75
2023/07/15 12:10:51;;;;;;;0.40;0.40;;;18.80;99.90;;;;;;5011292;28;20206;-76
2023/07/15 12:13:17;;;;;;;0.25;0.25;;;18.80;99.90;;;;;;5011889;28;20194;-76
2023/07/15 12:15:43;;;;;;;0.38;0.38;;;18.80;99.90;;;;;;5012119;28;20564;-76
2023/07/15 12:18:09;;;;;;;0.40;0.40;;;18.80;99.90;;;;;;4994260;28;20195;-76
2023/07/15 12:20:44;;;;;;;0.28;0.28;;;18.80;99.90;;;;;;5011775;28;20201;-75
2023/07/15 12:23:09;;;;;;;0.25;0.25;;;18.80;99.90;;;;;;4995713;28;20198;-76
2023/07/15 12:25:36;;;;;;;0.60;0.57;;;18.70;99.90;;;;;;5011845;28;20277;-75
2023/07/15 12:28:01;;;;;;;0.40;0.40;;;18.50;99.90;;;;;;4994549;28;20198;-76
2023/07/15 12:30:27;;;;;;;0.35;0.35;;;18.50;99.90;;;;;;5011348;28;20207;-76
2023/07/15 12:32:53;;;;;;;0.30;0.30;;;18.30;99.90;;;;;;5012227;28;20660;-74
2023/07/15 12:35:32;;;;;;;0.68;0.40;;;18.30;99.90;;;;;;5013012;28;20213;-75
2023/07/15 12:37:57;;;;;;;0.40;0.40;;;18.30;99.90;;;;;;5025722;28;20268;-75
2023/07/15 12:43:13;;;;;;;0.20;0.20;;;18.30;99.90;;;;;;5033063;28;20727;-76
2023/07/15 12:45:39;;;;;;;2.50;0.50;;;18.30;99.90;;;;;;5015757;28;20230;-76
2023/07/15 12:48:21;;;;;;;0.20;0.20;;;18.50;99.90;;;;;;5034687;28;20618;-77
2023/07/15 12:50:47;;;;;;;0.32;0.32;;;18.70;99.90;;;;;;5033185;28;20225;-74
2023/07/15 12:53:14;;;;;;;8.90;0.70;;;18.80;99.90;;;;;;5023962;28;20199;-70
2023/07/15 12:55:39;;;;;;;0.25;0.25;;;18.90;99.90;;;;;;4993620;28;20661;-68
2023/07/15 12:58:05;;;;;;;0.40;0.30;;;19.10;99.90;;;;;;5012110;28;20274;-67
2023/07/15 13:03:46;;;;;;;0.90;0.47;;;19.20;99.90;;;;;;4971361;28;20236;-69
2023/07/15 13:06:11;;;;;;;0.50;0.50;;;19.30;99.90;;;;;;4970699;28;20622;-68
2023/07/15 13:08:37;;;;;;;0.70;0.60;;;19.40;99.90;;;;;;4970614;28;20212;-68
2023/07/15 13:11:03;;;;;;;0.38;0.38;;;19.20;99.90;;;;;;4974061;28;20210;-70
2023/07/15 13:13:28;;;;;;;0.40;0.40;;;19.00;99.90;;;;;;4973401;28;20204;-68
2023/07/15 13:15:54;;;;;;;0.50;0.40;;;18.90;99.90;;;;;;4973596;28;20359;-68
2023/07/15 13:18:20;;;;;;;0.30;0.30;;;18.70;99.90;;;;;;4972398;28;20247;-68
2023/07/15 13:20:46;;;;;;;0.30;0.30;;;18.60;99.90;;;;;;4973122;28;20269;-68
2023/07/15 13:23:12;;;;;;;0.30;0.30;;;18.50;99.90;;;;;;4973410;28;20204;-68
2023/07/15 13:25:37;;;;;;;0.20;0.20;;;18.40;99.90;;;;;;4973274;28;20490;-68